Time;durP1;ratioP1;P1;durP2;ratioP2;P2;SDS_P1;SDS_P2;PMS_P1;PMS_P2;Temp;Humidity;BMP_temperature;BMP_pressure;BME280_temperature;BME280_humidity;BME280_pressure;Samples;Min_cycle;Max_cycle;Signal;HPM_P1;HPM_P2
2022/10/17 00:01:24;;;;;;;5.68;5.38;;;12.50;99.90;;;;;;4187288;28;20606;-63
2022/10/17 00:03:45;;;;;;;4.70;4.50;;;12.60;99.90;;;;;;4187299;28;20107;-63
2022/10/17 00:06:08;;;;;;;5.43;5.13;;;12.60;99.90;;;;;;4187556;28;20047;-63
2022/10/17 00:08:29;;;;;;;4.05;3.70;;;12.50;99.90;;;;;;4186661;28;20051;-63
2022/10/17 00:11:02;;;;;;;5.32;5.03;;;12.50;99.90;;;;;;4187377;28;20137;-63
2022/10/17 00:13:22;;;;;;;5.32;4.88;;;12.40;99.90;;;;;;4187424;28;20114;-63
2022/10/17 00:15:43;;;;;;;5.53;5.20;;;12.40;99.90;;;;;;4187453;28;20099;-63
2022/10/17 00:18:04;;;;;;;5.53;5.22;;;12.40;99.90;;;;;;4187520;28;20087;-63
2022/10/17 00:20:25;;;;;;;4.90;4.75;;;12.30;99.90;;;;;;4187127;28;20051;-63
2022/10/17 00:22:45;;;;;;;5.10;4.70;;;12.30;99.90;;;;;;4186692;28;20128;-63
2022/10/17 00:25:06;;;;;;;5.80;5.53;;;12.30;99.90;;;;;;4187428;28;20597;-63
2022/10/17 00:27:26;;;;;;;5.28;4.88;;;12.30;99.90;;;;;;4186929;28;20059;-62
2022/10/17 00:29:49;;;;;;;4.50;4.35;;;12.40;99.90;;;;;;4187466;28;20055;-63
2022/10/17 00:32:10;;;;;;;4.15;3.90;;;12.50;99.90;;;;;;4185818;28;20419;-63
2022/10/17 00:34:30;;;;;;;5.60;4.18;;;12.50;99.90;;;;;;4186905;28;20128;-63
2022/10/17 00:36:51;;;;;;;5.20;4.93;;;12.60;99.90;;;;;;4186613;28;20047;-62
2022/10/17 00:39:11;;;;;;;4.78;4.38;;;12.50;99.90;;;;;;4187602;28;20056;-63
2022/10/17 00:41:33;;;;;;;5.68;5.18;;;12.60;99.90;;;;;;4186709;28;20047;-63
2022/10/17 00:44:05;;;;;;;4.57;4.47;;;12.60;99.90;;;;;;4187116;28;20079;-63
2022/10/17 00:46:31;;;;;;;5.85;4.28;;;12.50;99.90;;;;;;4186445;28;20298;-63
2022/10/17 00:48:53;;;;;;;5.45;4.35;;;12.50;99.90;;;;;;4186875;28;20050;-63
2022/10/17 00:51:15;;;;;;;4.63;4.47;;;12.50;99.90;;;;;;4187208;28;20071;-62
2022/10/17 00:53:38;;;;;;;4.65;4.50;;;12.40;99.90;;;;;;4185949;28;20561;-63
2022/10/17 00:55:58;;;;;;;5.93;5.63;;;12.30;99.90;;;;;;4187084;28;20407;-63
2022/10/17 00:58:20;;;;;;;5.00;4.38;;;12.20;99.90;;;;;;4186586;28;20151;-63
2022/10/17 01:00:41;;;;;;;4.97;4.68;;;12.10;99.90;;;;;;4187029;28;20055;-63
2022/10/17 01:03:02;;;;;;;4.50;4.40;;;12.20;99.90;;;;;;4183339;28;20051;-63
2022/10/17 01:05:22;;;;;;;6.05;5.55;;;12.30;99.90;;;;;;4187257;28;20052;-63
2022/10/17 01:07:44;;;;;;;5.95;5.65;;;12.20;99.90;;;;;;4186930;28;20059;-63
2022/10/17 01:10:07;;;;;;;5.05;4.95;;;12.30;99.90;;;;;;4185643;28;20129;-63
2022/10/17 01:12:32;;;;;;;4.72;4.45;;;12.30;99.90;;;;;;4186175;28;20063;-63
2022/10/17 01:14:55;;;;;;;5.45;5.05;;;12.20;99.90;;;;;;4185979;28;20136;-63
2022/10/17 01:17:34;;;;;;;5.63;5.38;;;12.20;99.90;;;;;;4185885;28;20055;-63
2022/10/17 01:20:16;;;;;;;6.40;6.13;;;12.20;99.90;;;;;;4187050;28;20147;-63
2022/10/17 01:22:46;;;;;;;5.57;5.43;;;12.20;99.90;;;;;;4188951;28;20052;-62
2022/10/17 01:25:51;;;;;;;5.47;5.15;;;12.10;99.90;;;;;;4186107;28;20128;-63
2022/10/17 01:28:43;;;;;;;5.50;5.30;;;12.10;99.90;;;;;;4188760;28;20136;-63
2022/10/17 01:31:21;;;;;;;6.15;5.70;;;12.00;99.90;;;;;;4188478;28;20130;-63
2022/10/17 01:34:15;;;;;;;5.28;4.97;;;12.00;99.90;;;;;;4188434;28;20570;-63
2022/10/17 01:37:16;;;;;;;5.93;5.53;;;12.00;99.90;;;;;;4187830;28;20541;-61
2022/10/17 01:39:52;;;;;;;4.75;4.65;;;11.90;99.90;;;;;;4142570;28;20057;-63
2022/10/17 01:42:16;;;;;;;6.10;5.80;;;11.90;99.90;;;;;;4188408;28;20108;-62
2022/10/17 01:44:44;;;;;;;6.00;5.50;;;12.00;99.90;;;;;;4188831;28;20059;-62
2022/10/17 01:47:10;;;;;;;7.43;6.72;;;11.90;99.90;;;;;;4188434;28;20565;-62
2022/10/17 01:49:33;;;;;;;5.95;5.65;;;11.90;99.90;;;;;;4187879;28;20091;-63
2022/10/17 01:51:56;;;;;;;;;;;11.80;99.90;;;;;;4189073;28;20102;-63
2022/10/17 01:54:23;;;;;;;4.85;4.55;;;11.80;99.90;;;;;;4187870;28;20020;-63
2022/10/17 01:56:46;;;;;;;5.57;5.10;;;11.80;99.90;;;;;;4183755;28;20054;-63
2022/10/17 01:59:14;;;;;;;16.50;4.68;;;11.70;99.90;;;;;;4187684;28;20122;-63
2022/10/17 02:01:36;;;;;;;7.55;5.72;;;11.50;99.90;;;;;;4187722;28;20487;-63
2022/10/17 02:03:59;;;;;;;23.48;6.82;;;11.40;99.90;;;;;;4187775;28;20156;-63
2022/10/17 02:06:19;;;;;;;12.85;6.35;;;11.30;99.90;;;;;;4188784;28;20050;-63
2022/10/17 02:08:43;;;;;;;8.30;6.38;;;11.20;99.90;;;;;;4188138;28;20507;-63
2022/10/17 02:11:13;;;;;;;10.50;7.30;;;11.10;99.90;;;;;;4188285;28;20118;-63
2022/10/17 02:14:11;;;;;;;10.88;7.25;;;11.10;99.90;;;;;;4183984;28;20056;-63
2022/10/17 02:17:01;;;;;;;41.10;7.30;;;11.10;99.90;;;;;;4188430;28;20087;-63
2022/10/17 02:19:45;;;;;;;47.15;8.10;;;11.00;99.90;;;;;;4188285;28;20132;-62
2022/10/17 02:22:12;;;;;;;7.05;6.85;;;11.10;99.90;;;;;;4184278;28;20055;-62
2022/10/17 02:24:48;;;;;;;9.30;8.25;;;11.10;99.90;;;;;;4188203;28;20043;-62
2022/10/17 02:27:24;;;;;;;6.88;6.35;;;11.10;99.90;;;;;;4183297;28;20122;-63
2022/10/17 02:29:53;;;;;;;5.15;5.05;;;11.20;99.90;;;;;;4187653;28;20052;-63
2022/10/17 02:32:31;;;;;;;5.13;4.93;;;11.20;99.90;;;;;;4187264;28;20060;-63
2022/10/17 02:34:55;;;;;;;6.40;5.97;;;11.30;99.90;;;;;;4187707;28;20143;-63
2022/10/17 02:37:21;;;;;;;6.40;5.88;;;11.30;99.90;;;;;;4187422;28;20572;-62
2022/10/17 02:39:43;;;;;;;4.97;4.55;;;11.20;99.90;;;;;;4182952;28;20058;-63
2022/10/17 02:42:12;;;;;;;6.18;5.82;;;11.30;99.90;;;;;;4187172;28;20043;-62
2022/10/17 02:44:34;;;;;;;7.00;6.70;;;11.30;99.90;;;;;;4187978;28;20099;-62
2022/10/17 02:47:02;;;;;;;6.07;5.68;;;11.30;99.90;;;;;;4187798;28;20054;-63
2022/10/17 02:49:29;;;;;;;21.63;6.97;;;11.30;99.90;;;;;;4183672;28;20051;-63
2022/10/17 02:52:08;;;;;;;6.90;6.07;;;11.30;99.90;;;;;;4187519;28;20088;-62
2022/10/17 02:54:31;;;;;;;7.93;6.82;;;11.20;99.90;;;;;;4187302;28;20099;-63
2022/10/17 02:57:01;;;;;;;7.10;6.80;;;11.20;99.90;;;;;;4187532;28;20047;-63
2022/10/17 02:59:25;;;;;;;5.38;5.18;;;11.10;99.90;;;;;;4187389;28;20062;-62
2022/10/17 03:01:46;;;;;;;5.30;5.00;;;11.10;99.90;;;;;;4187243;28;20050;-63
2022/10/17 03:04:12;;;;;;;4.70;4.50;;;11.10;99.90;;;;;;4186955;28;20215;-63
2022/10/17 03:06:33;;;;;;;4.45;4.15;;;11.10;99.90;;;;;;4187137;28;20050;-63
2022/10/17 03:08:53;;;;;;;5.40;4.95;;;11.10;99.90;;;;;;4187174;28;20059;-62
2022/10/17 03:11:14;;;;;;;5.78;5.60;;;11.10;99.90;;;;;;4187442;28;20047;-63
2022/10/17 03:13:34;;;;;;;6.03;5.70;;;11.10;99.90;;;;;;4187138;28;20067;-63
2022/10/17 03:15:59;;;;;;;6.47;5.88;;;11.10;99.90;;;;;;4187415;28;20094;-62
2022/10/17 03:18:19;;;;;;;8.68;7.70;;;11.00;99.90;;;;;;4187181;28;20149;-63
2022/10/17 03:20:40;;;;;;;7.68;7.15;;;10.90;99.90;;;;;;4186455;28;20095;-63
2022/10/17 03:23:01;;;;;;;7.13;6.43;;;10.80;99.90;;;;;;4187699;28;20059;-62
2022/10/17 03:25:21;;;;;;;13.63;7.13;;;10.70;99.90;;;;;;4186773;28;20132;-63
2022/10/17 03:27:42;;;;;;;33.95;7.43;;;10.70;99.90;;;;;;4187162;28;20485;-63
2022/10/17 03:30:03;;;;;;;8.65;8.05;;;10.50;99.90;;;;;;4186646;28;20119;-63
2022/10/17 03:32:24;;;;;;;60.03;7.85;;;10.50;99.90;;;;;;4183059;28;20079;-63
2022/10/17 03:34:44;;;;;;;45.90;7.28;;;10.50;99.90;;;;;;4186358;28;20110;-62
2022/10/17 03:37:05;;;;;;;32.65;6.57;;;10.40;99.90;;;;;;4186938;28;20546;-63
2022/10/17 03:39:26;;;;;;;8.10;6.95;;;10.30;99.90;;;;;;4186701;28;20288;-62
2022/10/17 03:41:46;;;;;;;41.75;7.30;;;10.30;99.90;;;;;;4186244;28;20046;-63
2022/10/17 03:44:07;;;;;;;36.53;6.72;;;10.30;99.90;;;;;;4182891;28;20059;-62
2022/10/17 03:46:27;;;;;;;32.20;8.05;;;10.20;99.90;;;;;;4186575;28;20059;-62
2022/10/17 03:48:48;;;;;;;36.05;7.53;;;10.20;99.90;;;;;;4185785;28;20043;-63
2022/10/17 03:51:09;;;;;;;22.45;7.00;;;10.20;99.90;;;;;;4186814;28;20128;-62
2022/10/17 03:53:30;;;;;;;32.67;5.95;;;10.10;99.90;;;;;;4186702;28;20163;-63
2022/10/17 03:55:50;;;;;;;35.65;4.60;;;10.10;99.90;;;;;;4186650;28;20056;-63
2022/10/17 03:58:11;;;;;;;20.05;4.53;;;10.00;99.90;;;;;;4186474;28;20558;-63
2022/10/17 04:00:32;;;;;;;15.18;5.50;;;10.00;99.90;;;;;;4186507;28;20048;-63
2022/10/17 04:02:52;;;;;;;5.90;5.32;;;10.10;99.90;;;;;;4182109;28;20492;-63
2022/10/17 04:05:12;;;;;;;9.25;4.97;;;10.10;99.90;;;;;;4186797;28;20131;-62
2022/10/17 04:07:33;;;;;;;5.70;5.00;;;10.20;99.90;;;;;;4186614;28;20064;-63
2022/10/17 04:09:53;;;;;;;5.03;4.75;;;10.30;99.90;;;;;;4186112;28;20614;-63
2022/10/17 04:12:14;;;;;;;4.70;4.47;;;10.40;99.90;;;;;;4183198;28;20063;-63
2022/10/17 04:14:36;;;;;;;4.75;4.45;;;10.50;99.90;;;;;;4186527;28;20622;-63
2022/10/17 04:16:57;;;;;;;18.07;4.53;;;10.50;99.90;;;;;;4185635;28;20048;-63
2022/10/17 04:19:18;;;;;;;4.28;4.03;;;10.60;99.90;;;;;;4187287;28;20359;-62
2022/10/17 04:21:38;;;;;;;22.33;5.40;;;10.40;99.90;;;;;;4186025;28;20094;-62
2022/10/17 04:24:00;;;;;;;5.10;4.82;;;10.30;99.90;;;;;;4185831;28;20121;-62
2022/10/17 04:26:20;;;;;;;4.00;3.90;;;10.20;99.90;;;;;;4186159;28;20533;-63
2022/10/17 04:28:41;;;;;;;3.85;3.75;;;10.20;99.90;;;;;;4186541;28;20059;-63
2022/10/17 04:31:04;;;;;;;37.45;4.90;;;10.30;99.90;;;;;;4187093;28;20110;-63
2022/10/17 04:33:25;;;;;;;4.15;4.05;;;10.20;99.90;;;;;;4186334;28;20055;-63
2022/10/17 04:36:14;;;;;;;4.20;3.95;;;10.30;99.90;;;;;;4186582;28;20451;-61
2022/10/17 04:38:35;;;;;;;4.15;4.05;;;10.40;99.90;;;;;;4187167;28;20056;-63
2022/10/17 04:41:05;;;;;;;5.13;4.93;;;10.40;99.90;;;;;;4186701;28;20127;-63
2022/10/17 04:43:25;;;;;;;5.00;4.90;;;10.50;99.90;;;;;;4187351;28;20089;-63
2022/10/17 04:45:46;;;;;;;4.30;4.20;;;10.50;99.90;;;;;;4186150;28;20060;-63
2022/10/17 04:48:06;;;;;;;4.10;3.95;;;10.30;99.90;;;;;;4187028;28;20110;-63
2022/10/17 04:50:27;;;;;;;6.10;4.93;;;10.10;99.90;;;;;;4187154;28;20091;-63
2022/10/17 04:52:47;;;;;;;6.15;5.63;;;10.10;99.90;;;;;;4186699;28;20584;-63
2022/10/17 04:55:08;;;;;;;11.07;5.72;;;10.00;99.90;;;;;;4189474;28;20151;-63
2022/10/17 04:57:28;;;;;;;31.00;6.28;;;9.90;99.90;;;;;;4190617;28;20098;-63
2022/10/17 04:59:49;;;;;;;65.68;7.03;;;9.80;99.90;;;;;;4187381;28;20055;-63
2022/10/17 05:02:10;;;;;;;84.95;7.43;;;9.70;99.90;;;;;;4190626;28;20047;-63
2022/10/17 05:04:31;;;;;;;76.60;7.60;;;9.60;99.90;;;;;;4190162;28;20132;-63
2022/10/17 05:06:52;;;;;;;118.85;8.52;;;9.60;99.90;;;;;;4190625;28;20055;-63
2022/10/17 05:09:12;;;;;;;80.28;7.03;;;9.50;99.90;;;;;;4190301;28;20515;-63
2022/10/17 05:11:33;;;;;;;96.32;7.32;;;9.50;99.90;;;;;;4190318;28;20128;-63
2022/10/17 05:13:59;;;;;;;65.13;7.97;;;9.50;99.90;;;;;;4190076;28;20155;-63
2022/10/17 05:16:20;;;;;;;45.60;6.03;;;9.40;99.90;;;;;;4186476;28;20132;-63
2022/10/17 05:18:41;;;;;;;6.15;5.70;;;9.40;99.90;;;;;;4190072;28;20102;-63
2022/10/17 05:21:05;;;;;;;6.15;5.75;;;9.40;99.90;;;;;;4187707;28;20076;-63
2022/10/17 05:23:28;;;;;;;4.25;4.15;;;9.50;99.90;;;;;;4188428;28;20412;-63
2022/10/17 05:25:54;;;;;;;3.53;3.42;;;9.60;99.90;;;;;;4189794;28;20411;-64
2022/10/17 05:28:15;;;;;;;4.53;4.18;;;9.70;99.90;;;;;;4190572;28;20133;-64
2022/10/17 05:30:36;;;;;;;4.25;3.42;;;9.70;99.90;;;;;;4190785;28;20058;-63
2022/10/17 05:32:57;;;;;;;3.42;3.33;;;9.60;99.90;;;;;;4190739;28;20178;-63
2022/10/17 05:35:17;;;;;;;51.05;5.13;;;9.60;99.90;;;;;;4189698;28;20114;-63
2022/10/17 05:37:38;;;;;;;7.55;3.55;;;9.70;99.90;;;;;;4189748;28;20098;-63
2022/10/17 05:39:59;;;;;;;18.73;4.07;;;9.70;99.90;;;;;;4190107;28;20046;-63
2022/10/17 05:42:19;;;;;;;3.67;3.58;;;9.60;99.90;;;;;;4189701;28;20056;-63
2022/10/17 05:44:40;;;;;;;17.83;4.40;;;9.60;99.90;;;;;;4189413;28;20052;-63
2022/10/17 05:47:01;;;;;;;5.53;5.18;;;9.60;99.90;;;;;;4190221;28;20052;-63
2022/10/17 05:49:21;;;;;;;30.85;5.13;;;9.50;99.90;;;;;;4189699;28;20127;-64
2022/10/17 05:52:02;;;;;;;51.35;5.22;;;9.50;99.90;;;;;;4186906;28;20055;-63
2022/10/17 05:54:22;;;;;;;16.27;4.38;;;9.50;99.90;;;;;;4188968;28;20079;-63
2022/10/17 05:56:43;;;;;;;82.38;6.07;;;9.60;99.90;;;;;;4190193;28;20048;-63
2022/10/17 05:59:04;;;;;;;5.82;3.08;;;9.50;99.90;;;;;;4190038;28;20121;-64
2022/10/17 06:01:24;;;;;;;39.65;6.07;;;9.60;99.90;;;;;;4189969;28;20084;-63
2022/10/17 06:03:45;;;;;;;3.15;3.15;;;9.50;99.90;;;;;;4187597;28;20183;-63
2022/10/17 06:06:07;;;;;;;4.57;4.22;;;9.50;99.90;;;;;;4187692;28;20086;-63
2022/10/17 06:08:28;;;;;;;3.08;3.08;;;9.60;99.90;;;;;;4189970;28;20411;-63
2022/10/17 06:10:49;;;;;;;3.70;3.60;;;9.80;99.90;;;;;;4189267;28;20136;-64
2022/10/17 06:13:10;;;;;;;3.38;3.33;;;9.80;99.90;;;;;;4185853;28;20091;-63
2022/10/17 06:15:31;;;;;;;2.30;2.30;;;9.90;99.90;;;;;;4189826;28;20114;-64
2022/10/17 06:17:51;;;;;;;2.72;2.72;;;10.00;99.90;;;;;;4186687;28;20519;-64
2022/10/17 06:20:12;;;;;;;2.30;2.30;;;10.10;99.90;;;;;;4187093;28;20052;-63
2022/10/17 06:22:32;;;;;;;3.75;3.65;;;10.00;99.90;;;;;;4188944;28;20051;-64
2022/10/17 06:24:53;;;;;;;3.05;3.00;;;10.00;99.90;;;;;;4188636;28;20051;-63
2022/10/17 06:27:13;;;;;;;2.53;2.53;;;10.00;99.90;;;;;;4188902;28;20094;-64
2022/10/17 06:29:34;;;;;;;7.38;4.45;;;10.00;99.90;;;;;;4189175;28;20052;-64
2022/10/17 06:31:55;;;;;;;3.53;3.33;;;10.00;99.90;;;;;;4187663;28;20416;-64
2022/10/17 06:34:16;;;;;;;2.60;2.50;;;10.10;99.90;;;;;;4189611;28;20052;-63
2022/10/17 06:36:36;;;;;;;1.77;1.77;;;10.20;99.90;;;;;;4186924;28;20125;-64
2022/10/17 06:38:57;;;;;;;2.03;2.03;;;10.20;99.90;;;;;;4188105;28;20047;-64
2022/10/17 06:41:18;;;;;;;2.10;2.00;;;10.20;99.90;;;;;;4188359;28;20059;-64
2022/10/17 06:43:45;;;;;;;3.30;3.30;;;10.30;99.90;;;;;;4188043;28;20114;-64
2022/10/17 06:46:06;;;;;;;2.78;2.78;;;10.30;99.90;;;;;;4189353;28;20048;-64
2022/10/17 06:48:26;;;;;;;2.80;2.70;;;10.30;99.90;;;;;;4184568;28;20655;-64
2022/10/17 06:50:46;;;;;;;3.75;3.65;;;10.30;99.90;;;;;;4186768;28;20059;-63
2022/10/17 06:53:07;;;;;;;3.55;3.40;;;10.30;99.90;;;;;;4188146;28;20495;-64
2022/10/17 06:55:28;;;;;;;3.63;3.42;;;10.40;99.90;;;;;;4188228;28;20096;-63
2022/10/17 06:57:50;;;;;;;4.82;3.97;;;10.60;99.90;;;;;;4184701;28;20051;-64
2022/10/17 07:00:11;;;;;;;5.25;4.45;;;10.60;99.90;;;;;;4187033;28;20127;-64
2022/10/17 07:02:32;;;;;;;4.43;4.28;;;10.60;99.90;;;;;;4188854;28;20074;-64
2022/10/17 07:04:53;;;;;;;5.07;4.85;;;10.70;99.90;;;;;;4187872;28;20055;-64
2022/10/17 07:07:13;;;;;;;4.70;4.55;;;10.80;99.90;;;;;;4188360;28;20059;-64
2022/10/17 07:09:34;;;;;;;4.47;4.35;;;10.90;99.90;;;;;;4187876;28;20087;-64
2022/10/17 07:11:55;;;;;;;4.90;4.47;;;11.00;99.90;;;;;;4188473;28;20102;-64
2022/10/17 07:14:15;;;;;;;4.97;4.68;;;11.10;99.90;;;;;;4188200;28;20051;-64
2022/10/17 07:16:36;;;;;;;5.40;5.18;;;11.30;99.90;;;;;;4187262;28;20688;-64
2022/10/17 07:18:57;;;;;;;4.88;4.72;;;11.40;99.90;;;;;;4188275;28;20129;-64
2022/10/17 07:21:18;;;;;;;6.13;5.80;;;11.50;99.90;;;;;;4185602;28;20051;-64
2022/10/17 07:23:40;;;;;;;6.43;5.90;;;11.60;99.90;;;;;;4184951;28;20128;-64
2022/10/17 07:26:05;;;;;;;6.30;6.10;;;11.70;99.90;;;;;;4186613;28;20401;-65
2022/10/17 07:28:27;;;;;;;8.52;6.90;;;11.80;99.90;;;;;;4185890;28;20328;-64
2022/10/17 07:30:49;;;;;;;8.23;7.47;;;12.00;99.90;;;;;;4187378;28;20459;-64
2022/10/17 07:33:14;;;;;;;8.43;7.60;;;12.10;99.90;;;;;;4186815;28;20095;-64
2022/10/17 07:35:39;;;;;;;6.03;5.68;;;12.10;99.90;;;;;;4185193;28;20511;-64
2022/10/17 07:38:00;;;;;;;7.13;6.55;;;12.30;99.90;;;;;;4188901;28;20051;-64
2022/10/17 07:40:20;;;;;;;10.82;5.25;;;12.40;99.90;;;;;;4184510;28;20056;-64
2022/10/17 07:42:41;;;;;;;7.25;6.85;;;12.50;99.90;;;;;;4187078;28;20410;-64
2022/10/17 07:45:02;;;;;;;6.38;5.80;;;12.50;99.90;;;;;;4187200;28;20426;-64
2022/10/17 07:47:23;;;;;;;8.10;6.40;;;12.60;99.90;;;;;;4187849;28;20060;-64
2022/10/17 07:49:44;;;;;;;6.68;6.25;;;12.80;99.90;;;;;;4187559;28;20400;-64
2022/10/17 07:52:04;;;;;;;7.70;6.18;;;13.00;99.90;;;;;;4185513;28;20056;-64
2022/10/17 07:54:25;;;;;;;8.00;7.35;;;13.10;99.90;;;;;;4187126;28;20106;-64
2022/10/17 07:56:49;;;;;;;6.88;6.50;;;13.20;99.90;;;;;;4185790;28;20481;-64
2022/10/17 07:59:10;;;;;;;6.28;5.78;;;13.40;99.90;;;;;;4187360;28;20498;-64
2022/10/17 08:01:30;;;;;;;6.18;5.93;;;13.60;99.90;;;;;;4187693;28;20057;-64
2022/10/17 08:03:51;;;;;;;5.40;5.15;;;13.70;99.90;;;;;;4187267;28;20046;-64
2022/10/17 08:06:13;;;;;;;5.43;4.90;;;13.80;99.90;;;;;;4187352;28;20122;-64
2022/10/17 08:08:34;;;;;;;6.82;6.30;;;14.10;99.90;;;;;;4184777;28;20055;-64
2022/10/17 08:11:00;;;;;;;6.05;5.78;;;14.20;99.90;;;;;;4187192;28;20091;-64
2022/10/17 08:13:21;;;;;;;5.07;4.78;;;14.40;99.90;;;;;;4187540;28;20091;-64
2022/10/17 08:15:42;;;;;;;5.72;5.30;;;14.60;99.90;;;;;;4186842;28;20060;-64
2022/10/17 08:18:03;;;;;;;4.85;4.65;;;14.70;99.90;;;;;;4185616;28;20138;-64
2022/10/17 08:20:24;;;;;;;7.18;4.15;;;14.80;99.90;;;;;;4187121;28;20508;-63
2022/10/17 08:22:52;;;;;;;3.28;3.17;;;15.00;99.90;;;;;;4185626;28;20043;-64
2022/10/17 08:25:12;;;;;;;5.38;4.72;;;15.20;99.90;;;;;;4186816;28;20106;-64
2022/10/17 08:27:33;;;;;;;4.00;3.70;;;15.30;99.90;;;;;;4187178;28;20451;-64
2022/10/17 08:29:54;;;;;;;2.60;2.40;;;15.50;99.90;;;;;;4189364;28;20094;-64
2022/10/17 08:32:15;;;;;;;3.65;2.75;;;15.60;99.90;;;;;;4183200;28;20060;-64
2022/10/17 08:34:35;;;;;;;2.10;2.00;;;15.80;99.90;;;;;;4187233;28;20126;-64
2022/10/17 08:36:55;;;;;;;2.33;2.28;;;16.00;99.90;;;;;;4181214;28;20476;-63
2022/10/17 08:39:16;;;;;;;1.70;1.70;;;16.20;99.90;;;;;;4186325;28;20062;-64
2022/10/17 08:41:42;;;;;;;2.58;2.38;;;16.40;99.90;;;;;;4184338;28;20047;-64
2022/10/17 08:44:37;;;;;;;2.15;2.05;;;16.50;99.90;;;;;;4184638;28;20103;-64
2022/10/17 08:47:01;;;;;;;3.35;1.90;;;16.60;99.90;;;;;;4186320;28;20106;-63
2022/10/17 08:49:28;;;;;;;2.55;1.98;;;16.80;99.90;;;;;;4186608;28;20051;-63
2022/10/17 08:51:58;;;;;;;3.50;3.20;;;17.00;99.90;;;;;;4184033;28;20470;-63
2022/10/17 08:54:40;;;;;;;1.67;1.60;;;17.10;99.90;;;;;;4188289;28;20094;-61
2022/10/17 08:57:01;;;;;;;2.05;1.95;;;17.20;99.90;;;;;;4184024;28;20068;-61
2022/10/17 08:59:29;;;;;;;1.58;1.58;;;17.40;99.90;;;;;;4183822;28;20523;-61
2022/10/17 09:02:25;;;;;;;2.28;2.17;;;17.50;99.90;;;;;;4184740;28;20048;-61
2022/10/17 09:05:06;;;;;;;1.50;1.50;;;17.60;99.90;;;;;;4174068;28;20052;-61
2022/10/17 09:07:40;;;;;;;2.25;2.05;;;17.70;99.90;;;;;;4187063;28;20055;-61
2022/10/17 09:10:25;;;;;;;2.65;2.22;;;17.90;99.90;;;;;;4185533;28;20574;-61
2022/10/17 09:13:23;;;;;;;5.68;2.20;;;18.00;99.90;;;;;;4185978;28;20463;-61
2022/10/17 09:15:47;;;;;;;3.53;1.80;;;18.20;99.90;;;;;;4186160;28;20503;-61
2022/10/17 09:18:10;;;;;;;;;;;18.40;99.90;;;;;;4186761;28;20059;-61
2022/10/17 09:20:36;;;;;;;2.90;1.65;;;18.60;99.90;;;;;;4186267;28;19958;-61
2022/10/17 09:23:17;;;;;;;2.65;1.45;;;18.60;99.90;;;;;;4184721;28;20087;-61
2022/10/17 09:25:44;;;;;;;8.73;1.55;;;18.80;99.90;;;;;;4186450;28;20072;-61
2022/10/17 09:28:17;;;;;;;5.03;1.70;;;18.90;99.90;;;;;;4184761;28;20126;-61
2022/10/17 09:30:46;;;;;;;2.30;2.10;;;19.00;99.90;;;;;;4186536;28;20051;-61
2022/10/17 09:33:38;;;;;;;4.55;2.13;;;19.10;99.90;;;;;;4185726;28;20129;-61
2022/10/17 09:36:27;;;;;;;2.20;1.80;;;19.30;99.90;;;;;;4185798;28;20056;-61
2022/10/17 09:38:57;;;;;;;2.70;1.88;;;19.50;99.90;;;;;;4185757;28;20103;-61
2022/10/17 09:41:20;;;;;;;3.67;1.65;;;19.80;99.90;;;;;;4187867;28;20387;-58
2022/10/17 09:44:18;;;;;;;3.50;1.20;;;20.00;99.90;;;;;;4188918;28;20056;-57
2022/10/17 09:46:39;;;;;;;1.38;1.27;;;20.20;99.90;;;;;;4188301;28;20055;-57
2022/10/17 09:49:05;;;;;;;3.72;1.30;;;20.20;99.90;;;;;;4189658;28;20074;-57
2022/10/17 09:51:26;;;;;;;1.55;1.45;;;20.30;99.90;;;;;;4190288;28;20122;-58
2022/10/17 09:53:55;;;;;;;2.88;1.58;;;20.40;99.90;;;;;;4188605;28;20060;-58
2022/10/17 09:56:17;;;;;;;3.75;1.63;;;20.70;99.90;;;;;;4187772;28;20130;-58
2022/10/17 09:58:53;;;;;;;4.97;2.00;;;21.00;99.90;;;;;;4188579;28;20048;-58
2022/10/17 10:01:27;;;;;;;3.00;1.50;;;21.30;99.90;;;;;;4184930;28;20052;-58
2022/10/17 10:04:11;;;;;;;4.88;1.17;;;21.60;99.90;;;;;;4187123;28;20170;-58
2022/10/17 10:06:31;;;;;;;1.88;1.63;;;21.80;99.90;;;;;;4187939;28;20510;-58
2022/10/17 10:08:57;;;;;;;3.60;1.52;;;21.90;99.90;;;;;;4186334;28;20094;-57
2022/10/17 10:11:23;;;;;;;3.83;1.10;;;22.00;99.90;;;;;;4189114;28;20107;-57
2022/10/17 10:13:48;;;;;;;1.13;1.13;;;22.10;99.90;;;;;;4188454;28;20463;-58
2022/10/17 10:16:19;;;;;;;1.20;1.10;;;22.20;99.90;;;;;;4188745;28;20055;-57
2022/10/17 10:18:40;;;;;;;1.65;1.20;;;22.40;99.90;;;;;;4186709;28;20400;-58
2022/10/17 10:21:19;;;;;;;4.57;1.42;;;22.50;99.90;;;;;;4190791;28;20523;-57
2022/10/17 10:23:42;;;;;;;1.13;1.08;;;22.60;99.90;;;;;;4188988;28;20954;-58
2022/10/17 10:26:13;;;;;;;2.47;1.10;;;22.80;99.90;;;;;;4188188;28;20048;-59
2022/10/17 10:28:40;;;;;;;1.50;0.90;;;22.90;99.90;;;;;;4188205;28;20106;-58
2022/10/17 10:31:06;;;;;;;0.90;0.90;;;23.00;99.90;;;;;;4188455;28;20160;-58
2022/10/17 10:33:30;;;;;;;1.27;0.82;;;23.10;99.90;;;;;;4188185;28;20414;-58
2022/10/17 10:35:55;;;;;;;0.82;0.82;;;23.20;99.90;;;;;;4188282;28;20114;-57
2022/10/17 10:38:16;;;;;;;2.45;0.85;;;23.10;99.90;;;;;;4187848;28;20439;-58
2022/10/17 10:40:53;;;;;;;2.22;1.00;;;23.10;99.90;;;;;;4188403;28;20097;-58
2022/10/17 10:43:28;;;;;;;1.10;1.00;;;23.30;99.90;;;;;;4188317;28;20141;-58
2022/10/17 10:45:50;;;;;;;0.90;0.90;;;23.60;99.90;;;;;;4188623;28;20059;-57
2022/10/17 10:48:24;;;;;;;2.30;0.85;;;23.90;99.90;;;;;;4187779;28;20055;-58
2022/10/17 10:50:48;;;;;;;1.15;0.80;;;23.80;99.90;;;;;;4187867;28;20114;-57
2022/10/17 10:53:43;;;;;;;0.80;0.80;;;24.00;99.90;;;;;;4188069;28;20051;-58
2022/10/17 10:56:20;;;;;;;1.00;0.80;;;24.30;99.90;;;;;;4188145;28;20055;-58
2022/10/17 10:58:55;;;;;;;0.80;0.80;;;24.40;99.90;;;;;;4187753;28;20106;-57
2022/10/17 11:01:37;;;;;;;0.70;0.70;;;24.70;99.90;;;;;;4187740;28;20079;-58
2022/10/17 11:04:35;;;;;;;0.80;0.80;;;24.50;99.90;;;;;;4186509;28;20043;-58
2022/10/17 11:07:18;;;;;;;1.58;0.90;;;24.50;99.90;;;;;;4187673;28;20059;-58
2022/10/17 11:09:52;;;;;;;1.70;1.13;;;24.20;99.90;;;;;;4187166;28;20058;-59
2022/10/17 11:12:28;;;;;;;0.90;0.90;;;24.60;99.90;;;;;;4187732;28;20089;-59
2022/10/17 11:15:06;;;;;;;1.42;0.80;;;24.80;99.90;;;;;;4188787;28;20115;-59
2022/10/17 11:17:44;;;;;;;0.80;0.80;;;25.00;99.90;;;;;;4187098;28;20056;-58
2022/10/17 11:20:08;;;;;;;0.82;0.70;;;25.00;99.90;;;;;;4186208;28;20130;-59
2022/10/17 11:22:32;;;;;;;2.53;0.80;;;25.50;99.90;;;;;;4188158;28;20062;-59
2022/10/17 11:24:59;;;;;;;1.88;0.80;;;25.80;99.90;;;;;;4186659;28;20411;-58
2022/10/17 11:27:20;;;;;;;0.80;0.80;;;25.70;99.90;;;;;;4189530;28;20063;-58
2022/10/17 11:29:42;;;;;;;3.90;0.80;;;25.90;99.90;;;;;;4187541;28;20060;-58
2022/10/17 11:32:18;;;;;;;2.63;1.37;;;26.20;99.90;;;;;;4187478;28;20051;-59
2022/10/17 11:34:46;;;;;;;1.00;0.70;;;26.60;99.90;;;;;;4187447;28;20341;-59
2022/10/17 11:37:27;;;;;;;1.15;0.70;;;26.40;99.90;;;;;;4187049;28;20119;-59
2022/10/17 11:39:57;;;;;;;2.00;0.60;;;26.30;99.90;;;;;;4183453;28;20051;-58
2022/10/17 11:42:24;;;;;;;2.17;1.30;;;26.10;99.90;;;;;;4187441;28;20055;-59
2022/10/17 11:44:48;;;;;;;0.70;0.60;;;25.50;99.90;;;;;;4187706;28;20420;-58
2022/10/17 11:47:30;;;;;;;1.65;0.82;;;25.70;99.90;;;;;;4188633;28;20055;-59
2022/10/17 11:49:57;;;;;;;0.70;0.70;;;25.50;99.90;;;;;;4187359;28;20051;-59
2022/10/17 11:52:20;;;;;;;0.70;0.70;;;25.30;99.90;;;;;;4187601;28;20106;-59
2022/10/17 11:55:21;;;;;;;0.70;0.70;;;25.40;99.90;;;;;;4187562;28;20098;-58
2022/10/17 11:57:47;;;;;;;1.38;0.70;;;25.20;99.90;;;;;;4186767;28;20110;-58
2022/10/17 12:00:40;;;;;;;0.70;0.70;;;25.00;99.90;;;;;;4188004;28;20048;-58
2022/10/17 12:03:12;;;;;;;1.25;0.73;;;25.00;99.90;;;;;;4171689;28;20457;-59
2022/10/17 12:05:41;;;;;;;1.88;0.80;;;25.20;99.90;;;;;;4187448;28;20153;-58
2022/10/17 12:08:12;;;;;;;1.15;0.70;;;25.50;99.90;;;;;;4187575;28;20064;-58
2022/10/17 12:11:00;;;;;;;1.10;0.90;;;26.20;99.90;;;;;;4187187;28;20064;-59
2022/10/17 12:13:26;;;;;;;0.95;0.80;;;25.60;99.90;;;;;;4186720;28;20091;-59
2022/10/17 12:15:48;;;;;;;1.67;0.88;;;24.90;99.90;;;;;;4187184;28;20107;-59
2022/10/17 12:18:16;;;;;;;0.80;0.80;;;25.10;99.90;;;;;;4185631;28;20541;-58
2022/10/17 12:20:37;;;;;;;1.63;0.70;;;25.40;99.90;;;;;;4185413;28;20472;-58
2022/10/17 12:23:10;;;;;;;2.15;0.80;;;25.50;99.90;;;;;;4187475;28;20159;-59
2022/10/17 12:25:32;;;;;;;;;;;25.50;99.90;;;;;;4187954;28;20055;-58
2022/10/17 12:28:06;;;;;;;2.10;0.70;;;25.20;99.90;;;;;;4187189;28;19970;-58
2022/10/17 12:30:27;;;;;;;0.80;0.80;;;25.40;99.90;;;;;;4182691;28;20071;-59
2022/10/17 12:33:02;;;;;;;1.00;0.93;;;25.20;99.90;;;;;;4186574;28;20075;-59
2022/10/17 12:35:28;;;;;;;2.97;1.02;;;25.90;99.90;;;;;;4186694;28;20520;-58
2022/10/17 12:37:48;;;;;;;1.40;0.70;;;26.10;99.90;;;;;;4186630;28;20675;-58
2022/10/17 12:40:34;;;;;;;1.60;0.75;;;25.30;99.90;;;;;;4186647;28;20124;-58
2022/10/17 12:42:54;;;;;;;2.13;0.70;;;25.30;99.90;;;;;;4186946;28;20526;-59